Taasinge, Denmark

8:45 AM CEST on July 28, 2016 (GMT +0200)
Taasinge | | Change Station

Elev 52 ft 55.04 °N, 10.62 °E | Updated 1 second ago

Mostly Cloudy
Mostly Cloudy
64.6 °F
Feels Like 64.6 °F
N
3.5
Wind Variable Wind from West
Gusts 3.5 mph

Today
High -- | Low -- °F
--% Chance of Precip.
Yesterday
High -- | Low -- °F
Precip. -- in
Pressure 29.95 in
Visibility 6.2 miles
Clouds Few 1600 ft
Mostly Cloudy 4500 ft
Dew Point 59 °F
Humidity 82%
Rainfall 0.00 in
Snow Depth Not available.
5:19 AM 9:27 PM
Waning Crescent, 35% visible
METAR EKSB 280620Z 28005KT 240V320 9999 FEW016 BKN045 17/13 Q1014
Pressure 29.95 in
Visibility 6.2 miles
Clouds Few 1600 ft
Mostly Cloudy 4500 ft
Dew Point 59 °F
Humidity 82%
Rainfall 0.00 in
Snow Depth Not available.
5:19 AM 9:27 PM
Waning Crescent, 35% visible
METAR EKSB 280620Z 28005KT 240V320 9999 FEW016 BKN045 17/13 Q1014

10-Day Weather Forecast

×

Almanac

Astronomy

Jul. 28, 2016 Rise Set
Actual Time
Civil Twilight
Nautical Twilight
Astronomical Twilight
Moon
Length of Visible Light
Length of Day
Tomorrow will be .
, % of the Moon is Illuminated

Today's Extremes

Country Highs Country Lows

Community

WunderPhotos

Upload Photos

1,928,064 photos uploaded!

WunderBlog® & News

Nearby

Air Quality

  Air Quality AQ Index Pollutant
Not available.

Snow Depth

Station Depth Elevation

Earthquake Activity

City Distance Mag. Time & Date
Minimum magnitude displayed is 2.5.

Coastal Water Temperatures

Place Temperature

Stations

Nearby Weather Stations

Station Location Temp. Windchill Dew Point Humidity Wind Precip. Elev Updated Type